sensor_id;sensor_type;location;lat;lon;timestamp;pressure;altitude;pressure_sealevel;temperature;humidity
54389;BME280;40975;50.390;8.640;2022-09-02T00:00:46;99302.16;;;11.98;90.86
54389;BME280;40975;50.390;8.640;2022-09-02T00:03:12;99296.56;;;11.91;90.47
54389;BME280;40975;50.390;8.640;2022-09-02T00:05:37;99293.41;;;12.06;90.35
54389;BME280;40975;50.390;8.640;2022-09-02T00:08:03;99296.22;;;12.04;90.95
54389;BME280;40975;50.390;8.640;2022-09-02T00:10:29;99295.38;;;12.04;91.17
54389;BME280;40975;50.390;8.640;2022-09-02T00:12:54;99287.25;;;12.05;90.69
54389;BME280;40975;50.390;8.640;2022-09-02T00:15:20;99284.59;;;12.05;90.55
54389;BME280;40975;50.390;8.640;2022-09-02T00:17:45;99285.91;;;12.01;90.81
54389;BME280;40975;50.390;8.640;2022-09-02T00:20:11;99288.56;;;12.01;90.76
54389;BME280;40975;50.390;8.640;2022-09-02T00:22:36;99287.00;;;11.98;91.34
54389;BME280;40975;50.390;8.640;2022-09-02T00:25:02;99289.63;;;12.08;91.62
54389;BME280;40975;50.390;8.640;2022-09-02T00:27:27;99286.50;;;12.13;91.18
54389;BME280;40975;50.390;8.640;2022-09-02T00:29:53;99288.84;;;12.16;91.29
54389;BME280;40975;50.390;8.640;2022-09-02T00:32:18;99290.53;;;12.17;92.06
54389;BME280;40975;50.390;8.640;2022-09-02T00:34:45;99280.88;;;12.16;91.24
54389;BME280;40975;50.390;8.640;2022-09-02T00:37:10;99277.75;;;12.21;91.02
54389;BME280;40975;50.390;8.640;2022-09-02T00:39:37;99284.34;;;12.17;91.90
54389;BME280;40975;50.390;8.640;2022-09-02T00:42:03;99280.09;;;12.24;92.35
54389;BME280;40975;50.390;8.640;2022-09-02T00:44:29;99265.97;;;12.23;91.45
54389;BME280;40975;50.390;8.640;2022-09-02T00:46:54;99271.81;;;12.27;92.28
54389;BME280;40975;50.390;8.640;2022-09-02T00:49:23;99274.78;;;12.24;91.87
54389;BME280;40975;50.390;8.640;2022-09-02T00:52:07;99266.13;;;12.22;92.34
54389;BME280;40975;50.390;8.640;2022-09-02T00:54:46;99264.69;;;12.27;92.79
54389;BME280;40975;50.390;8.640;2022-09-02T00:57:14;99268.69;;;12.32;92.54
54389;BME280;40975;50.390;8.640;2022-09-02T00:59:57;99263.06;;;12.35;92.11
54389;BME280;40975;50.390;8.640;2022-09-02T01:02:25;99266.66;;;12.25;90.98
54389;BME280;40975;50.390;8.640;2022-09-02T01:04:53;99259.03;;;12.31;93.72
54389;BME280;40975;50.390;8.640;2022-09-02T01:07:21;99260.53;;;12.33;92.56
54389;BME280;40975;50.390;8.640;2022-09-02T01:09:48;99263.88;;;12.35;92.13
54389;BME280;40975;50.390;8.640;2022-09-02T01:12:14;99265.72;;;12.35;92.65
54389;BME280;40975;50.390;8.640;2022-09-02T01:14:40;99261.56;;;12.32;92.48
54389;BME280;40975;50.390;8.640;2022-09-02T01:17:06;99259.56;;;12.34;93.02
54389;BME280;40975;50.390;8.640;2022-09-02T01:19:35;99264.88;;;12.34;93.14
54389;BME280;40975;50.390;8.640;2022-09-02T01:22:13;99264.75;;;12.36;93.01
54389;BME280;40975;50.390;8.640;2022-09-02T01:24:39;99262.72;;;12.38;92.33
54389;BME280;40975;50.390;8.640;2022-09-02T01:27:04;99256.59;;;12.37;91.28
54389;BME280;40975;50.390;8.640;2022-09-02T01:29:30;99258.09;;;12.40;92.18
54389;BME280;40975;50.390;8.640;2022-09-02T01:31:55;99260.41;;;12.35;92.38
54389;BME280;40975;50.390;8.640;2022-09-02T01:34:22;99259.56;;;12.34;92.84
54389;BME280;40975;50.390;8.640;2022-09-02T01:36:47;99259.78;;;12.41;91.24
54389;BME280;40975;50.390;8.640;2022-09-02T01:39:13;99258.31;;;12.47;92.98
54389;BME280;40975;50.390;8.640;2022-09-02T01:41:39;99253.50;;;12.50;92.45
54389;BME280;40975;50.390;8.640;2022-09-02T01:44:05;99247.72;;;12.55;90.51
54389;BME280;40975;50.390;8.640;2022-09-02T01:46:32;99250.91;;;12.58;93.56
54389;BME280;40975;50.390;8.640;2022-09-02T01:48:58;99248.94;;;12.60;93.04
54389;BME280;40975;50.390;8.640;2022-09-02T01:51:26;99244.59;;;12.59;92.16
54389;BME280;40975;50.390;8.640;2022-09-02T01:53:52;99239.91;;;12.53;93.00
54389;BME280;40975;50.390;8.640;2022-09-02T01:56:17;99247.25;;;12.59;92.26
54389;BME280;40975;50.390;8.640;2022-09-02T01:58:42;99250.97;;;12.67;90.35
54389;BME280;40975;50.390;8.640;2022-09-02T02:01:09;99249.19;;;12.75;91.43
54389;BME280;40975;50.390;8.640;2022-09-02T02:03:36;99242.88;;;12.77;93.91
54389;BME280;40975;50.390;8.640;2022-09-02T02:06:08;99245.91;;;12.82;92.23
54389;BME280;40975;50.390;8.640;2022-09-02T02:08:36;99244.75;;;12.84;90.99
54389;BME280;40975;50.390;8.640;2022-09-02T02:11:01;99254.75;;;12.90;91.33
54389;BME280;40975;50.390;8.640;2022-09-02T02:13:28;99249.94;;;12.94;91.35
54389;BME280;40975;50.390;8.640;2022-09-02T02:15:55;99244.47;;;12.96;89.90
54389;BME280;40975;50.390;8.640;2022-09-02T02:18:20;99242.31;;;12.99;90.89
54389;BME280;40975;50.390;8.640;2022-09-02T02:20:45;99249.16;;;13.02;91.23
54389;BME280;40975;50.390;8.640;2022-09-02T02:23:11;99248.00;;;13.04;89.31
54389;BME280;40975;50.390;8.640;2022-09-02T02:25:36;99248.38;;;13.10;89.66
54389;BME280;40975;50.390;8.640;2022-09-02T02:28:02;99249.69;;;13.14;90.78
54389;BME280;40975;50.390;8.640;2022-09-02T02:30:29;99233.72;;;13.14;88.35
54389;BME280;40975;50.390;8.640;2022-09-02T02:32:55;99243.88;;;13.18;89.81
54389;BME280;40975;50.390;8.640;2022-09-02T02:35:22;99243.88;;;13.18;90.57
54389;BME280;40975;50.390;8.640;2022-09-02T02:37:48;99239.41;;;13.19;89.29
54389;BME280;40975;50.390;8.640;2022-09-02T02:40:19;99244.91;;;13.17;91.00
54389;BME280;40975;50.390;8.640;2022-09-02T02:42:46;99247.88;;;13.14;90.54
54389;BME280;40975;50.390;8.640;2022-09-02T02:45:12;99249.06;;;13.12;90.15
54389;BME280;40975;50.390;8.640;2022-09-02T02:47:39;99240.50;;;13.08;91.96
54389;BME280;40975;50.390;8.640;2022-09-02T02:50:07;99243.34;;;13.06;91.21
54389;BME280;40975;50.390;8.640;2022-09-02T02:52:35;99241.38;;;13.09;90.98
54389;BME280;40975;50.390;8.640;2022-09-02T02:55:01;99242.84;;;13.03;89.91
54389;BME280;40975;50.390;8.640;2022-09-02T02:57:27;99245.19;;;13.06;91.91
54389;BME280;40975;50.390;8.640;2022-09-02T02:59:52;99249.16;;;13.02;91.35
54389;BME280;40975;50.390;8.640;2022-09-02T03:02:17;99245.50;;;13.03;92.44
54389;BME280;40975;50.390;8.640;2022-09-02T03:04:43;99242.31;;;12.99;91.17
54389;BME280;40975;50.390;8.640;2022-09-02T03:07:08;99243.00;;;13.01;91.99
54389;BME280;40975;50.390;8.640;2022-09-02T03:09:34;99239.34;;;13.02;91.81
54389;BME280;40975;50.390;8.640;2022-09-02T03:12:00;99235.16;;;13.00;90.97
54389;BME280;40975;50.390;8.640;2022-09-02T03:14:26;99236.16;;;12.99;91.48
54389;BME280;40975;50.390;8.640;2022-09-02T03:16:52;99234.94;;;12.93;91.47
54389;BME280;40975;50.390;8.640;2022-09-02T03:19:17;99235.97;;;12.92;91.06
54389;BME280;40975;50.390;8.640;2022-09-02T03:21:42;99233.78;;;12.87;91.71
54389;BME280;40975;50.390;8.640;2022-09-02T03:24:10;99236.59;;;12.86;92.30
54389;BME280;40975;50.390;8.640;2022-09-02T03:26:38;99232.59;;;12.82;93.70
54389;BME280;40975;50.390;8.640;2022-09-02T03:29:04;99237.91;;;12.82;93.25
54389;BME280;40975;50.390;8.640;2022-09-02T03:31:30;99225.91;;;12.78;92.96
54389;BME280;40975;50.390;8.640;2022-09-02T03:33:57;99227.09;;;12.83;92.89
54389;BME280;40975;50.390;8.640;2022-09-02T03:36:26;99226.78;;;12.86;92.19
54389;BME280;40975;50.390;8.640;2022-09-02T03:38:54;99231.78;;;12.89;91.79
54389;BME280;40975;50.390;8.640;2022-09-02T03:41:19;99222.44;;;12.85;92.09
54389;BME280;40975;50.390;8.640;2022-09-02T03:43:46;99224.91;;;12.79;92.06
54389;BME280;40975;50.390;8.640;2022-09-02T03:46:13;99222.94;;;12.81;91.12
54389;BME280;40975;50.390;8.640;2022-09-02T03:48:39;99228.09;;;12.82;91.98
54389;BME280;40975;50.390;8.640;2022-09-02T03:51:08;99226.72;;;12.78;91.71
54389;BME280;40975;50.390;8.640;2022-09-02T03:53:33;99221.56;;;12.77;92.95
54389;BME280;40975;50.390;8.640;2022-09-02T03:56:07;99220.88;;;12.74;92.41
54389;BME280;40975;50.390;8.640;2022-09-02T03:58:34;99216.25;;;12.77;93.52
54389;BME280;40975;50.390;8.640;2022-09-02T04:01:01;99213.22;;;12.71;92.60
54389;BME280;40975;50.390;8.640;2022-09-02T04:03:27;99212.38;;;12.71;92.79
54389;BME280;40975;50.390;8.640;2022-09-02T04:05:52;99211.19;;;12.65;93.82
54389;BME280;40975;50.390;8.640;2022-09-02T04:08:20;99210.31;;;12.56;93.71
54389;BME280;40975;50.390;8.640;2022-09-02T04:10:46;99217.97;;;12.59;93.88
54389;BME280;40975;50.390;8.640;2022-09-02T04:13:12;99211.50;;;12.62;93.22
54389;BME280;40975;50.390;8.640;2022-09-02T04:15:40;99205.47;;;12.52;92.72
54389;BME280;40975;50.390;8.640;2022-09-02T04:18:09;99214.47;;;12.59;93.36
54389;BME280;40975;50.390;8.640;2022-09-02T04:20:37;99209.16;;;12.59;93.78
54389;BME280;40975;50.390;8.640;2022-09-02T04:23:04;99206.50;;;12.59;91.58
54389;BME280;40975;50.390;8.640;2022-09-02T04:25:31;99212.00;;;12.57;93.41
54389;BME280;40975;50.390;8.640;2022-09-02T04:27:57;99214.78;;;12.56;93.24
54389;BME280;40975;50.390;8.640;2022-09-02T04:30:23;99216.75;;;12.54;92.95
54389;BME280;40975;50.390;8.640;2022-09-02T04:32:50;99213.44;;;12.52;93.56
54389;BME280;40975;50.390;8.640;2022-09-02T04:35:17;99219.53;;;12.44;93.37
54389;BME280;40975;50.390;8.640;2022-09-02T04:37:42;99221.53;;;12.42;93.77
54389;BME280;40975;50.390;8.640;2022-09-02T04:40:09;99217.34;;;12.39;94.64
54389;BME280;40975;50.390;8.640;2022-09-02T04:42:35;99213.72;;;12.40;94.45
54389;BME280;40975;50.390;8.640;2022-09-02T04:45:01;99218.88;;;12.42;94.43
54389;BME280;40975;50.390;8.640;2022-09-02T04:47:28;99220.69;;;12.41;94.59
54389;BME280;40975;50.390;8.640;2022-09-02T04:49:54;99220.69;;;12.41;95.47
54389;BME280;40975;50.390;8.640;2022-09-02T04:52:20;99226.50;;;12.37;95.02
54389;BME280;40975;50.390;8.640;2022-09-02T04:54:47;99225.59;;;12.28;94.79
54389;BME280;40975;50.390;8.640;2022-09-02T04:57:12;99223.16;;;12.35;95.71
54389;BME280;40975;50.390;8.640;2022-09-02T04:59:38;99229.97;;;12.37;94.30
54389;BME280;40975;50.390;8.640;2022-09-02T05:02:08;99236.50;;;12.43;94.47
54389;BME280;40975;50.390;8.640;2022-09-02T05:04:34;99225.16;;;12.41;94.46
54389;BME280;40975;50.390;8.640;2022-09-02T05:07:01;99225.16;;;12.41;95.30
54389;BME280;40975;50.390;8.640;2022-09-02T05:09:29;99223.72;;;12.47;95.84
54389;BME280;40975;50.390;8.640;2022-09-02T05:11:59;99222.78;;;12.56;94.08
54389;BME280;40975;50.390;8.640;2022-09-02T05:14:37;99223.97;;;12.62;93.68
54389;BME280;40975;50.390;8.640;2022-09-02T05:17:05;99225.84;;;12.69;93.94
54389;BME280;40975;50.390;8.640;2022-09-02T05:19:30;99227.56;;;12.79;95.56
54389;BME280;40975;50.390;8.640;2022-09-02T05:21:58;99222.44;;;12.85;94.36
54389;BME280;40975;50.390;8.640;2022-09-02T05:24:29;99226.81;;;12.95;93.56
54389;BME280;40975;50.390;8.640;2022-09-02T05:26:58;99227.84;;;13.02;92.85
54389;BME280;40975;50.390;8.640;2022-09-02T05:29:24;99224.38;;;13.10;90.73
54389;BME280;40975;50.390;8.640;2022-09-02T05:31:51;99219.59;;;13.21;92.48
54389;BME280;40975;50.390;8.640;2022-09-02T05:34:20;99233.28;;;13.27;91.75
54389;BME280;40975;50.390;8.640;2022-09-02T05:36:48;99233.44;;;13.33;91.53
54389;BME280;40975;50.390;8.640;2022-09-02T05:39:13;99230.03;;;13.41;92.27
54389;BME280;40975;50.390;8.640;2022-09-02T05:41:39;99230.22;;;13.48;91.11
54389;BME280;40975;50.390;8.640;2022-09-02T05:44:06;99224.56;;;13.51;90.78
54389;BME280;40975;50.390;8.640;2022-09-02T05:46:33;99226.38;;;13.59;90.93
54389;BME280;40975;50.390;8.640;2022-09-02T05:48:59;99224.91;;;13.64;91.48
54389;BME280;40975;50.390;8.640;2022-09-02T05:54:16;99221.94;;;13.84;91.24
54389;BME280;40975;50.390;8.640;2022-09-02T05:56:44;99224.63;;;13.92;90.01
54389;BME280;40975;50.390;8.640;2022-09-02T05:59:11;99217.75;;;13.98;89.39
54389;BME280;40975;50.390;8.640;2022-09-02T06:01:37;99226.28;;;14.10;89.63
54389;BME280;40975;50.390;8.640;2022-09-02T06:04:04;99232.13;;;14.22;88.42
54389;BME280;40975;50.390;8.640;2022-09-02T06:06:33;99234.63;;;14.32;87.58
54389;BME280;40975;50.390;8.640;2022-09-02T06:08:59;99217.41;;;14.42;84.97
54389;BME280;40975;50.390;8.640;2022-09-02T06:11:26;99224.22;;;14.53;88.37
54389;BME280;40975;50.390;8.640;2022-09-02T06:13:53;99223.72;;;14.66;87.64
54389;BME280;40975;50.390;8.640;2022-09-02T06:16:20;99225.56;;;14.74;84.09
54389;BME280;40975;50.390;8.640;2022-09-02T06:18:47;99225.38;;;14.84;83.56
54389;BME280;40975;50.390;8.640;2022-09-02T06:21:14;99228.50;;;14.96;85.09
54389;BME280;40975;50.390;8.640;2022-09-02T06:23:42;99221.97;;;15.06;84.47
54389;BME280;40975;50.390;8.640;2022-09-02T06:26:12;99223.06;;;15.20;83.99
54389;BME280;40975;50.390;8.640;2022-09-02T06:28:38;99224.66;;;15.38;83.28
54389;BME280;40975;50.390;8.640;2022-09-02T06:31:13;99215.56;;;15.47;82.20
54389;BME280;40975;50.390;8.640;2022-09-02T06:33:40;99228.97;;;15.70;82.75
54389;BME280;40975;50.390;8.640;2022-09-02T06:36:08;99220.69;;;15.89;78.96
54389;BME280;40975;50.390;8.640;2022-09-02T06:38:39;99225.09;;;16.05;76.93
54389;BME280;40975;50.390;8.640;2022-09-02T06:41:05;99228.59;;;16.05;75.50
54389;BME280;40975;50.390;8.640;2022-09-02T06:43:38;99228.81;;;16.19;74.65
54389;BME280;40975;50.390;8.640;2022-09-02T06:46:21;99234.75;;;16.29;74.04
54389;BME280;40975;50.390;8.640;2022-09-02T06:48:49;99233.31;;;16.41;73.24
54389;BME280;40975;50.390;8.640;2022-09-02T06:51:24;99232.41;;;16.64;74.89
54389;BME280;40975;50.390;8.640;2022-09-02T06:53:50;99236.50;;;16.90;71.29
54389;BME280;40975;50.390;8.640;2022-09-02T06:56:16;99234.75;;;17.12;69.57
54389;BME280;40975;50.390;8.640;2022-09-02T06:58:42;99235.84;;;17.33;69.22
54389;BME280;40975;50.390;8.640;2022-09-02T07:01:08;99231.06;;;17.65;68.51
54389;BME280;40975;50.390;8.640;2022-09-02T07:03:35;99228.63;;;17.92;63.29
54389;BME280;40975;50.390;8.640;2022-09-02T07:06:19;99229.09;;;18.74;61.23
54389;BME280;40975;50.390;8.640;2022-09-02T07:08:49;99233.34;;;19.25;57.76
54389;BME280;40975;50.390;8.640;2022-09-02T07:11:20;99229.06;;;19.51;56.49
54389;BME280;40975;50.390;8.640;2022-09-02T07:13:49;99223.56;;;19.17;57.11
54389;BME280;40975;50.390;8.640;2022-09-02T07:16:16;99232.41;;;19.04;57.99
54389;BME280;40975;50.390;8.640;2022-09-02T07:18:42;99223.53;;;19.66;56.52
54389;BME280;40975;50.390;8.640;2022-09-02T07:21:10;99223.94;;;19.69;55.78
54389;BME280;40975;50.390;8.640;2022-09-02T07:23:37;99224.94;;;19.48;56.13
54389;BME280;40975;50.390;8.640;2022-09-02T07:26:04;99225.91;;;19.34;56.45
54389;BME280;40975;50.390;8.640;2022-09-02T07:28:30;99224.47;;;19.31;57.05
54389;BME280;40975;50.390;8.640;2022-09-02T07:30:58;99221.81;;;19.45;55.92
54389;BME280;40975;50.390;8.640;2022-09-02T07:33:24;99219.69;;;20.02;55.02
54389;BME280;40975;50.390;8.640;2022-09-02T07:35:50;99215.31;;;20.48;53.38
54389;BME280;40975;50.390;8.640;2022-09-02T07:38:18;99214.91;;;20.38;52.63
54389;BME280;40975;50.390;8.640;2022-09-02T07:40:44;99222.38;;;19.95;53.49
54389;BME280;40975;50.390;8.640;2022-09-02T07:43:11;99227.72;;;19.82;55.43
54389;BME280;40975;50.390;8.640;2022-09-02T07:45:38;99214.91;;;19.97;54.36
54389;BME280;40975;50.390;8.640;2022-09-02T07:48:05;99220.63;;;19.61;54.01
54389;BME280;40975;50.390;8.640;2022-09-02T07:50:34;99221.38;;;20.23;52.64
54389;BME280;40975;50.390;8.640;2022-09-02T07:53:03;99218.84;;;20.22;52.19
54389;BME280;40975;50.390;8.640;2022-09-02T07:55:31;99220.75;;;20.34;52.45
54389;BME280;40975;50.390;8.640;2022-09-02T07:57:58;99211.59;;;20.56;51.61
54389;BME280;40975;50.390;8.640;2022-09-02T08:00:24;99219.88;;;20.74;51.47
54389;BME280;40975;50.390;8.640;2022-09-02T08:02:53;99219.22;;;20.72;51.01
54389;BME280;40975;50.390;8.640;2022-09-02T08:05:26;99208.34;;;21.12;50.94
54389;BME280;40975;50.390;8.640;2022-09-02T08:07:52;99216.41;;;21.26;50.32
54389;BME280;40975;50.390;8.640;2022-09-02T08:10:17;99214.06;;;21.36;49.26
54389;BME280;40975;50.390;8.640;2022-09-02T08:12:45;99213.06;;;22.01;47.93
54389;BME280;40975;50.390;8.640;2022-09-02T08:15:12;99222.97;;;22.14;47.32
54389;BME280;40975;50.390;8.640;2022-09-02T08:17:38;99228.03;;;22.98;45.86
54389;BME280;40975;50.390;8.640;2022-09-02T08:20:07;99207.09;;;23.43;45.18
54389;BME280;40975;50.390;8.640;2022-09-02T08:22:34;99214.06;;;24.95;42.15
54389;BME280;40975;50.390;8.640;2022-09-02T08:25:00;99212.59;;;25.86;40.19
54389;BME280;40975;50.390;8.640;2022-09-02T08:27:25;99214.94;;;27.46;36.56
54389;BME280;40975;50.390;8.640;2022-09-02T08:29:52;99217.16;;;28.42;35.38
54389;BME280;40975;50.390;8.640;2022-09-02T08:32:17;99214.72;;;28.45;34.98
54389;BME280;40975;50.390;8.640;2022-09-02T08:34:42;99204.75;;;28.66;34.14
54389;BME280;40975;50.390;8.640;2022-09-02T08:37:08;99217.84;;;29.07;33.76
54389;BME280;40975;50.390;8.640;2022-09-02T08:39:33;99208.06;;;29.27;34.04
54389;BME280;40975;50.390;8.640;2022-09-02T08:42:21;99213.16;;;30.54;32.39
54389;BME280;40975;50.390;8.640;2022-09-02T08:44:50;99203.53;;;30.46;31.24
54389;BME280;40975;50.390;8.640;2022-09-02T08:47:23;99199.97;;;30.51;31.30
54389;BME280;40975;50.390;8.640;2022-09-02T08:49:54;99201.91;;;30.61;31.19
54389;BME280;40975;50.390;8.640;2022-09-02T08:52:51;99200.72;;;31.53;29.56
54389;BME280;40975;50.390;8.640;2022-09-02T08:55:23;99202.63;;;30.97;30.25
54389;BME280;40975;50.390;8.640;2022-09-02T08:57:52;99199.84;;;31.08;30.35
54389;BME280;40975;50.390;8.640;2022-09-02T09:00:20;99200.16;;;30.96;30.45
54389;BME280;40975;50.390;8.640;2022-09-02T09:06:03;99195.56;;;32.50;29.00
54389;BME280;40975;50.390;8.640;2022-09-02T09:11:18;99203.22;;;32.29;28.70
54389;BME280;40975;50.390;8.640;2022-09-02T09:16:39;99190.25;;;33.51;27.76
54389;BME280;40975;50.390;8.640;2022-09-02T09:19:21;99190.31;;;32.83;27.39
54389;BME280;40975;50.390;8.640;2022-09-02T09:21:53;99183.63;;;33.33;27.73
54389;BME280;40975;50.390;8.640;2022-09-02T09:24:27;99187.66;;;33.41;27.00
54389;BME280;40975;50.390;8.640;2022-09-02T09:26:55;99173.78;;;34.03;26.71
54389;BME280;40975;50.390;8.640;2022-09-02T09:29:20;99182.28;;;34.35;26.47
54389;BME280;40975;50.390;8.640;2022-09-02T09:31:53;99173.25;;;34.01;26.30
54389;BME280;40975;50.390;8.640;2022-09-02T09:34:19;99178.22;;;33.47;26.91
54389;BME280;40975;50.390;8.640;2022-09-02T09:36:47;99181.28;;;32.78;27.48
54389;BME280;40975;50.390;8.640;2022-09-02T09:39:23;99168.38;;;33.60;27.16
54389;BME280;40975;50.390;8.640;2022-09-02T09:41:52;99174.69;;;34.46;26.01
54389;BME280;40975;50.390;8.640;2022-09-02T09:47:10;99164.78;;;32.53;28.19
54389;BME280;40975;50.390;8.640;2022-09-02T09:49:38;99144.41;;;33.46;27.41
54389;BME280;40975;50.390;8.640;2022-09-02T09:52:05;99140.34;;;30.37;30.13
54389;BME280;40975;50.390;8.640;2022-09-02T09:54:31;99138.78;;;28.32;33.10
54389;BME280;40975;50.390;8.640;2022-09-02T09:57:13;99140.88;;;29.41;32.12
54389;BME280;40975;50.390;8.640;2022-09-02T09:59:42;99139.94;;;28.99;32.79
54389;BME280;40975;50.390;8.640;2022-09-02T10:02:27;99146.16;;;28.79;32.82
54389;BME280;40975;50.390;8.640;2022-09-02T10:07:58;99129.13;;;26.03;35.98
54389;BME280;40975;50.390;8.640;2022-09-02T10:10:25;99134.81;;;27.47;33.30
54389;BME280;40975;50.390;8.640;2022-09-02T10:12:54;99128.72;;;28.00;32.34
54389;BME280;40975;50.390;8.640;2022-09-02T10:15:33;99130.44;;;30.62;29.99
54389;BME280;40975;50.390;8.640;2022-09-02T10:18:44;99137.88;;;27.28;31.21
54389;BME280;40975;50.390;8.640;2022-09-02T10:21:12;99129.13;;;26.03;33.95
54389;BME280;40975;50.390;8.640;2022-09-02T10:23:53;99137.03;;;25.25;35.66
54389;BME280;40975;50.390;8.640;2022-09-02T10:26:36;99130.97;;;25.35;35.99
54389;BME280;40975;50.390;8.640;2022-09-02T10:32:14;99119.06;;;24.95;34.62
54389;BME280;40975;50.390;8.640;2022-09-02T10:34:56;99113.69;;;24.83;34.63
54389;BME280;40975;50.390;8.640;2022-09-02T10:37:26;99106.31;;;25.87;33.09
54389;BME280;40975;50.390;8.640;2022-09-02T10:40:07;99105.38;;;26.50;32.63
54389;BME280;40975;50.390;8.640;2022-09-02T10:45:46;99096.03;;;26.23;33.01
54389;BME280;40975;50.390;8.640;2022-09-02T10:51:05;99106.00;;;27.29;32.05
54389;BME280;40975;50.390;8.640;2022-09-02T10:53:50;99100.13;;;26.26;33.51
54389;BME280;40975;50.390;8.640;2022-09-02T10:56:20;99096.94;;;25.61;34.57
54389;BME280;40975;50.390;8.640;2022-09-02T10:59:02;99089.81;;;24.97;34.91
54389;BME280;40975;50.390;8.640;2022-09-02T11:01:43;99091.06;;;24.53;35.30
54389;BME280;40975;50.390;8.640;2022-09-02T11:06:56;99090.63;;;24.33;35.55
54389;BME280;40975;50.390;8.640;2022-09-02T11:09:34;99084.75;;;23.88;35.85
54389;BME280;40975;50.390;8.640;2022-09-02T11:15:00;99084.50;;;23.78;36.78
54389;BME280;40975;50.390;8.640;2022-09-02T11:18:15;99079.88;;;23.79;36.39
54389;BME280;40975;50.390;8.640;2022-09-02T11:20:28;99073.31;;;24.34;36.39
54389;BME280;40975;50.390;8.640;2022-09-02T11:23:30;99070.91;;;23.54;36.94
54389;BME280;40975;50.390;8.640;2022-09-02T11:26:15;99080.41;;;23.33;37.68
54389;BME280;40975;50.390;8.640;2022-09-02T11:29:21;99070.25;;;23.83;37.15
54389;BME280;40975;50.390;8.640;2022-09-02T11:32:01;99065.75;;;24.36;36.02
54389;BME280;40975;50.390;8.640;2022-09-02T11:37:04;99072.47;;;23.74;36.60
54389;BME280;40975;50.390;8.640;2022-09-02T11:39:31;99067.97;;;23.56;37.12
54389;BME280;40975;50.390;8.640;2022-09-02T11:42:16;99063.38;;;23.14;38.01
54389;BME280;40975;50.390;8.640;2022-09-02T11:47:39;99053.59;;;23.55;37.54
54389;BME280;40975;50.390;8.640;2022-09-02T11:53:19;99050.13;;;23.24;37.71
54389;BME280;40975;50.390;8.640;2022-09-02T11:56:00;99033.25;;;23.76;37.31
54389;BME280;40975;50.390;8.640;2022-09-02T11:58:39;99030.06;;;23.68;37.17
54389;BME280;40975;50.390;8.640;2022-09-02T12:01:15;99043.50;;;23.86;36.50
54389;BME280;40975;50.390;8.640;2022-09-02T12:03:45;99044.38;;;24.51;35.33
54389;BME280;40975;50.390;8.640;2022-09-02T12:06:15;99033.16;;;24.60;34.90
54389;BME280;40975;50.390;8.640;2022-09-02T12:13:55;99029.47;;;24.66;33.90
54389;BME280;40975;50.390;8.640;2022-09-02T12:21:19;99007.97;;;25.90;31.89
54389;BME280;40975;50.390;8.640;2022-09-02T12:26:14;99012.09;;;26.32;31.72
54389;BME280;40975;50.390;8.640;2022-09-02T12:28:41;99007.22;;;26.34;30.78
54389;BME280;40975;50.390;8.640;2022-09-02T12:31:10;99013.41;;;25.90;31.07
54389;BME280;40975;50.390;8.640;2022-09-02T12:33:38;99011.00;;;26.56;31.21
54389;BME280;40975;50.390;8.640;2022-09-02T12:36:05;99000.59;;;26.75;30.73
54389;BME280;40975;50.390;8.640;2022-09-02T12:38:36;98999.91;;;26.35;31.02
54389;BME280;40975;50.390;8.640;2022-09-02T12:46:44;99000.75;;;25.62;31.86
54389;BME280;40975;50.390;8.640;2022-09-02T12:52:01;98994.22;;;25.97;31.83
54389;BME280;40975;50.390;8.640;2022-09-02T12:54:46;98990.81;;;26.51;31.74
54389;BME280;40975;50.390;8.640;2022-09-02T12:57:15;98999.09;;;26.62;31.52
54389;BME280;40975;50.390;8.640;2022-09-02T12:59:42;98993.41;;;26.63;30.75
54389;BME280;40975;50.390;8.640;2022-09-02T13:21:29;98974.13;;;26.43;30.91
54389;BME280;40975;50.390;8.640;2022-09-02T13:27:06;98972.81;;;26.73;30.88
54389;BME280;40975;50.390;8.640;2022-09-02T13:30:04;98962.44;;;26.42;30.88
54389;BME280;40975;50.390;8.640;2022-09-02T13:32:32;98964.31;;;25.97;31.78
54389;BME280;40975;50.390;8.640;2022-09-02T13:35:05;98957.78;;;25.25;32.43
54389;BME280;40975;50.390;8.640;2022-09-02T13:37:37;98948.00;;;24.90;32.41
54389;BME280;40975;50.390;8.640;2022-09-02T13:40:31;98952.19;;;24.80;33.63
54389;BME280;40975;50.390;8.640;2022-09-02T13:43:19;98956.78;;;24.80;32.72
54389;BME280;40975;50.390;8.640;2022-09-02T13:45:47;98942.25;;;25.20;32.45
54389;BME280;40975;50.390;8.640;2022-09-02T13:48:24;98946.34;;;24.89;32.93
54389;BME280;40975;50.390;8.640;2022-09-02T13:50:52;98940.22;;;25.10;32.70
54389;BME280;40975;50.390;8.640;2022-09-02T13:53:35;98933.69;;;25.63;32.31
54389;BME280;40975;50.390;8.640;2022-09-02T13:56:02;98928.22;;;25.80;32.48
54389;BME280;40975;50.390;8.640;2022-09-02T13:58:31;98935.00;;;25.60;32.41
54389;BME280;40975;50.390;8.640;2022-09-02T14:01:20;98924.19;;;25.65;32.02
54389;BME280;40975;50.390;8.640;2022-09-02T14:03:47;98929.31;;;25.27;32.72
54389;BME280;40975;50.390;8.640;2022-09-02T14:06:15;98925.25;;;25.64;32.59
54389;BME280;40975;50.390;8.640;2022-09-02T14:08:42;98925.00;;;25.66;32.75
54389;BME280;40975;50.390;8.640;2022-09-02T14:11:13;98920.16;;;25.68;32.45
54389;BME280;40975;50.390;8.640;2022-09-02T14:13:40;98914.25;;;25.54;32.48
54389;BME280;40975;50.390;8.640;2022-09-02T14:16:37;98905.47;;;25.29;32.20
54389;BME280;40975;50.390;8.640;2022-09-02T14:21:31;98890.25;;;25.11;32.54
54389;BME280;40975;50.390;8.640;2022-09-02T14:23:57;98887.56;;;24.94;32.98
54389;BME280;40975;50.390;8.640;2022-09-02T14:26:33;98892.53;;;24.40;33.47
54389;BME280;40975;50.390;8.640;2022-09-02T14:29:01;98884.88;;;24.08;33.57
54389;BME280;40975;50.390;8.640;2022-09-02T14:31:28;98885.03;;;23.89;34.21
54389;BME280;40975;50.390;8.640;2022-09-02T14:33:57;98877.66;;;24.25;34.11
54389;BME280;40975;50.390;8.640;2022-09-02T14:38:56;98875.28;;;24.29;33.89
54389;BME280;40975;50.390;8.640;2022-09-02T14:41:33;98871.19;;;24.14;34.17